VLG22CA GCXO-GCRR
Flight info
| Callsign | VLG22CA |
|---|---|
| Flight time | 0h 29m |
| Altitude | 18000 |
| Route | LARYS |
| Aircraft | A320/M-SDE3FGHIRWY/LB1 |
Departure
| Time | 2026-04-17 11:32 |
|---|---|
| Airport | Tenerife Norte-Ciudad de La Laguna Airport (GCXO) |
Arrival
| Time | 2026-04-17 12:01 |
|---|---|
| Airport | César Manrique-Lanzarote Airport (GCRR) |
| Time | Latitude | Longitude | Altitude | Speed | Heading |
|---|---|---|---|---|---|
| 2026-04-17 11:17 | 28.48643 | -16.34553 | 2067 ft | 0 kts | 21° |
| 2026-04-17 11:25 | 28.48630 | -16.34558 | 2067 ft | 2 kts | 21° |
| 2026-04-17 11:25 | 28.48614 | -16.34565 | 2068 ft | 2 kts | 21° |
| 2026-04-17 11:26 | 28.48598 | -16.34572 | 2068 ft | 2 kts | 21° |
| 2026-04-17 11:26 | 28.48582 | -16.34579 | 2068 ft | 2 kts | 21° |
| 2026-04-17 11:26 | 28.48567 | -16.34586 | 2068 ft | 2 kts | 21° |
| 2026-04-17 11:26 | 28.48552 | -16.34593 | 2068 ft | 2 kts | 5° |
| 2026-04-17 11:27 | 28.48536 | -16.34589 | 2068 ft | 2 kts | 296° |
| 2026-04-17 11:27 | 28.48536 | -16.34587 | 2068 ft | 0 kts | 295° |
| 2026-04-17 11:27 | 28.48537 | -16.34592 | 2068 ft | 0 kts | 291° |
| 2026-04-17 11:28 | 28.48543 | -16.34612 | 2069 ft | 5 kts | 286° |
| 2026-04-17 11:28 | 28.48548 | -16.34636 | 2071 ft | 2 kts | 282° |
| 2026-04-17 11:28 | 28.48549 | -16.34642 | 2071 ft | 0 kts | 281° |
| 2026-04-17 11:28 | 28.48554 | -16.34672 | 2073 ft | 10 kts | 285° |
| 2026-04-17 11:29 | 28.48588 | -16.34776 | 2077 ft | 15 kts | 290° |
| 2026-04-17 11:29 | 28.48628 | -16.34894 | 2083 ft | 17 kts | 291° |
| 2026-04-17 11:29 | 28.48669 | -16.35020 | 2084 ft | 18 kts | 290° |
| 2026-04-17 11:29 | 28.48718 | -16.35163 | 2081 ft | 21 kts | 291° |
| 2026-04-17 11:30 | 28.48772 | -16.35330 | 2076 ft | 24 kts | 290° |
| 2026-04-17 11:30 | 28.48838 | -16.35524 | 2071 ft | 28 kts | 291° |
| 2026-04-17 11:30 | 28.48863 | -16.35707 | 2068 ft | 21 kts | 235° |
| 2026-04-17 11:30 | 28.48791 | -16.35734 | 2071 ft | 10 kts | 143° |
| 2026-04-17 11:31 | 28.48779 | -16.35703 | 2072 ft | 3 kts | 106° |
| 2026-04-17 11:31 | 28.48721 | -16.35527 | 2073 ft | 54 kts | 111° |
| 2026-04-17 11:31 | 28.48520 | -16.34917 | 2086 ft | 109 kts | 111° |
| 2026-04-17 11:31 | 28.48193 | -16.33945 | 2053 ft | 153 kts | 112° |
| 2026-04-17 11:32 | 28.47823 | -16.32807 | 2576 ft | 153 kts | 108° |
| 2026-04-17 11:32 | 28.47411 | -16.31673 | 3149 ft | 156 kts | 115° |
| 2026-04-17 11:32 | 28.46931 | -16.30526 | 3602 ft | 169 kts | 119° |
| 2026-04-17 11:32 | 28.46605 | -16.29762 | 3760 ft | 181 kts | 119° |
| 2026-04-17 11:33 | 28.46393 | -16.29272 | 3831 ft | 190 kts | 118° |
| 2026-04-17 11:33 | 28.45784 | -16.27846 | 4041 ft | 213 kts | 118° |
| 2026-04-17 11:33 | 28.45114 | -16.26251 | 4457 ft | 234 kts | 118° |
| 2026-04-17 11:33 | 28.44465 | -16.24469 | 4900 ft | 259 kts | 106° |
| 2026-04-17 11:34 | 28.44536 | -16.22358 | 5525 ft | 280 kts | 76° |
| 2026-04-17 11:34 | 28.45307 | -16.20289 | 6295 ft | 288 kts | 72° |
| 2026-04-17 11:34 | 28.46024 | -16.18146 | 7072 ft | 291 kts | 75° |
| 2026-04-17 11:34 | 28.46674 | -16.15958 | 7878 ft | 294 kts | 77° |
| 2026-04-17 11:35 | 28.47247 | -16.13714 | 8684 ft | 297 kts | 79° |
| 2026-04-17 11:35 | 28.47761 | -16.11463 | 9480 ft | 300 kts | 80° |
| 2026-04-17 11:35 | 28.48266 | -16.09142 | 10251 ft | 304 kts | 80° |
| 2026-04-17 11:35 | 28.48738 | -16.06942 | 10558 ft | 323 kts | 79° |
| 2026-04-17 11:36 | 28.48752 | -16.06878 | 10564 ft | 323 kts | 79° |
| 2026-04-17 11:36 | 28.49306 | -16.04309 | 10778 ft | 344 kts | 79° |
| 2026-04-17 11:36 | 28.49898 | -16.01634 | 11316 ft | 353 kts | 78° |
| 2026-04-17 11:36 | 28.50509 | -15.98914 | 11966 ft | 357 kts | 77° |
| 2026-04-17 11:37 | 28.51130 | -15.96161 | 12618 ft | 362 kts | 76° |
| 2026-04-17 11:37 | 28.51758 | -15.93375 | 13309 ft | 364 kts | 76° |
| 2026-04-17 11:37 | 28.52387 | -15.90570 | 13952 ft | 368 kts | 77° |
| 2026-04-17 11:37 | 28.53023 | -15.87740 | 14543 ft | 371 kts | 76° |
| 2026-04-17 11:38 | 28.53661 | -15.84902 | 15165 ft | 372 kts | 77° |
| 2026-04-17 11:38 | 28.54303 | -15.82035 | 15754 ft | 375 kts | 77° |
| 2026-04-17 11:38 | 28.54939 | -15.79188 | 16359 ft | 377 kts | 77° |
| 2026-04-17 11:38 | 28.55586 | -15.76290 | 16945 ft | 379 kts | 78° |
| 2026-04-17 11:39 | 28.56235 | -15.73379 | 17547 ft | 381 kts | 77° |
| 2026-04-17 11:39 | 28.56888 | -15.70447 | 17952 ft | 383 kts | 78° |
| 2026-04-17 11:39 | 28.57543 | -15.67506 | 18056 ft | 386 kts | 78° |
| 2026-04-17 11:39 | 28.58206 | -15.64527 | 18065 ft | 389 kts | 77° |
| 2026-04-17 11:40 | 28.58871 | -15.61534 | 18064 ft | 390 kts | 77° |
| 2026-04-17 11:40 | 28.59535 | -15.58542 | 18065 ft | 390 kts | 77° |
| 2026-04-17 11:40 | 28.60197 | -15.55550 | 18064 ft | 390 kts | 78° |
| 2026-04-17 11:40 | 28.60857 | -15.52556 | 18065 ft | 390 kts | 77° |
| 2026-04-17 11:41 | 28.61514 | -15.49574 | 18063 ft | 390 kts | 78° |
| 2026-04-17 11:41 | 28.62175 | -15.46577 | 18071 ft | 390 kts | 77° |
| 2026-04-17 11:41 | 28.62834 | -15.43587 | 18064 ft | 390 kts | 77° |
| 2026-04-17 11:41 | 28.63494 | -15.40599 | 18064 ft | 390 kts | 78° |
| 2026-04-17 11:42 | 28.64152 | -15.37614 | 18069 ft | 390 kts | 77° |
| 2026-04-17 11:42 | 28.64812 | -15.34614 | 18065 ft | 390 kts | 78° |
| 2026-04-17 11:42 | 28.65468 | -15.31618 | 18067 ft | 390 kts | 77° |
| 2026-04-17 11:42 | 28.66126 | -15.28619 | 18069 ft | 390 kts | 77° |
| 2026-04-17 11:43 | 28.66772 | -15.25669 | 18066 ft | 390 kts | 78° |
| 2026-04-17 11:43 | 28.67429 | -15.22662 | 18063 ft | 390 kts | 78° |
| 2026-04-17 11:43 | 28.68083 | -15.19661 | 18061 ft | 391 kts | 78° |
| 2026-04-17 11:43 | 28.68739 | -15.16641 | 18060 ft | 391 kts | 77° |
| 2026-04-17 11:44 | 28.69180 | -15.13605 | 18060 ft | 389 kts | 87° |
| 2026-04-17 11:44 | 28.69406 | -15.10524 | 18066 ft | 390 kts | 87° |
| 2026-04-17 11:44 | 28.69630 | -15.07425 | 18070 ft | 390 kts | 87° |
| 2026-04-17 11:44 | 28.69849 | -15.04348 | 18072 ft | 390 kts | 87° |
| 2026-04-17 11:45 | 28.70070 | -15.01256 | 18076 ft | 390 kts | 86° |
| 2026-04-17 11:45 | 28.70286 | -14.98174 | 18077 ft | 390 kts | 88° |
| 2026-04-17 11:45 | 28.70427 | -14.96131 | 18077 ft | 390 kts | 88° |
| 2026-04-17 11:45 | 28.70710 | -14.92009 | 18074 ft | 390 kts | 87° |
| 2026-04-17 11:46 | 28.70921 | -14.88931 | 18069 ft | 390 kts | 87° |
| 2026-04-17 11:46 | 28.71132 | -14.85886 | 18071 ft | 390 kts | 86° |
| 2026-04-17 11:46 | 28.71350 | -14.82796 | 18072 ft | 390 kts | 86° |
| 2026-04-17 11:46 | 28.71565 | -14.79715 | 18076 ft | 390 kts | 86° |
| 2026-04-17 11:47 | 28.71707 | -14.77636 | 18080 ft | 390 kts | 86° |
| 2026-04-17 11:47 | 28.71915 | -14.74594 | 18080 ft | 390 kts | 86° |
| 2026-04-17 11:47 | 28.72124 | -14.71522 | 18049 ft | 387 kts | 86° |
| 2026-04-17 11:47 | 28.72330 | -14.68505 | 17784 ft | 376 kts | 86° |
| 2026-04-17 11:48 | 28.72531 | -14.65581 | 17525 ft | 365 kts | 88° |
| 2026-04-17 11:48 | 28.72727 | -14.62738 | 17262 ft | 356 kts | 87° |
| 2026-04-17 11:48 | 28.72920 | -14.59932 | 17006 ft | 353 kts | 86° |
| 2026-04-17 11:48 | 28.73109 | -14.57147 | 16749 ft | 352 kts | 86° |
| 2026-04-17 11:49 | 28.73295 | -14.54360 | 16493 ft | 351 kts | 86° |
| 2026-04-17 11:49 | 28.73479 | -14.51591 | 16244 ft | 350 kts | 87° |
| 2026-04-17 11:49 | 28.73661 | -14.48851 | 15895 ft | 345 kts | 86° |
| 2026-04-17 11:49 | 28.73840 | -14.46126 | 15454 ft | 344 kts | 86° |
| 2026-04-17 11:50 | 28.74020 | -14.43407 | 15010 ft | 343 kts | 86° |
| 2026-04-17 11:50 | 28.74199 | -14.40699 | 14564 ft | 343 kts | 86° |
| 2026-04-17 11:50 | 28.74377 | -14.37991 | 14116 ft | 342 kts | 86° |
| 2026-04-17 11:50 | 28.74556 | -14.35285 | 13645 ft | 342 kts | 86° |
| 2026-04-17 11:51 | 28.74732 | -14.32583 | 13173 ft | 341 kts | 87° |
| 2026-04-17 11:51 | 28.74904 | -14.29897 | 12739 ft | 339 kts | 87° |
| 2026-04-17 11:51 | 28.75072 | -14.27250 | 12303 ft | 338 kts | 86° |
| 2026-04-17 11:51 | 28.75244 | -14.24586 | 11873 ft | 336 kts | 88° |
| 2026-04-17 11:52 | 28.75418 | -14.21917 | 11425 ft | 335 kts | 87° |
| 2026-04-17 11:52 | 28.75592 | -14.19272 | 10993 ft | 334 kts | 86° |
| 2026-04-17 11:52 | 28.75764 | -14.16637 | 10562 ft | 334 kts | 88° |
| 2026-04-17 11:52 | 28.75933 | -14.13998 | 10256 ft | 329 kts | 87° |
| 2026-04-17 11:53 | 28.76097 | -14.11448 | 10134 ft | 318 kts | 87° |
| 2026-04-17 11:53 | 28.76255 | -14.08972 | 10010 ft | 308 kts | 88° |
| 2026-04-17 11:53 | 28.76407 | -14.06592 | 9751 ft | 303 kts | 88° |
| 2026-04-17 11:53 | 28.76559 | -14.04200 | 9397 ft | 302 kts | 88° |
| 2026-04-17 11:54 | 28.76709 | -14.01810 | 9048 ft | 301 kts | 88° |
| 2026-04-17 11:54 | 28.76855 | -13.99435 | 8716 ft | 299 kts | 88° |
| 2026-04-17 11:54 | 28.77000 | -13.97080 | 8386 ft | 297 kts | 89° |
| 2026-04-17 11:54 | 28.77144 | -13.94737 | 8064 ft | 295 kts | 89° |
| 2026-04-17 11:55 | 28.77289 | -13.92409 | 7738 ft | 294 kts | 88° |
| 2026-04-17 11:55 | 28.77435 | -13.90082 | 7223 ft | 299 kts | 89° |
| 2026-04-17 11:55 | 28.77584 | -13.87655 | 6459 ft | 314 kts | 89° |
| 2026-04-17 11:55 | 28.77740 | -13.85163 | 5610 ft | 313 kts | 89° |
| 2026-04-17 11:56 | 28.77898 | -13.82693 | 4779 ft | 312 kts | 89° |
| 2026-04-17 11:56 | 28.78054 | -13.80235 | 4030 ft | 308 kts | 89° |
| 2026-04-17 11:56 | 28.78202 | -13.77866 | 3768 ft | 289 kts | 89° |
| 2026-04-17 11:56 | 28.78342 | -13.75666 | 3633 ft | 268 kts | 89° |
| 2026-04-17 11:57 | 28.78469 | -13.73648 | 3508 ft | 249 kts | 89° |
| 2026-04-17 11:57 | 28.78666 | -13.71750 | 3312 ft | 236 kts | 78° |
| 2026-04-17 11:57 | 28.79328 | -13.70085 | 3101 ft | 228 kts | 59° |
| 2026-04-17 11:57 | 28.80405 | -13.68798 | 2869 ft | 223 kts | 39° |
| 2026-04-17 11:58 | 28.81758 | -13.67925 | 2595 ft | 224 kts | 30° |
| 2026-04-17 11:58 | 28.83145 | -13.67125 | 2314 ft | 223 kts | 30° |
| 2026-04-17 11:58 | 28.84520 | -13.66331 | 2014 ft | 221 kts | 30° |
| 2026-04-17 11:58 | 28.85879 | -13.65545 | 1717 ft | 216 kts | 29° |
| 2026-04-17 11:59 | 28.87197 | -13.64783 | 1438 ft | 208 kts | 29° |
| 2026-04-17 11:59 | 28.88458 | -13.64052 | 1194 ft | 198 kts | 27° |
| 2026-04-17 11:59 | 28.89643 | -13.63366 | 941 ft | 183 kts | 29° |
| 2026-04-17 11:59 | 28.90709 | -13.62751 | 698 ft | 162 kts | 28° |
| 2026-04-17 12:00 | 28.91678 | -13.62198 | 427 ft | 150 kts | 30° |
| 2026-04-17 12:00 | 28.92557 | -13.61704 | 318 ft | 139 kts | 29° |
| 2026-04-17 12:00 | 28.93388 | -13.61198 | 127 ft | 135 kts | 31° |
| 2026-04-17 12:00 | 28.94178 | -13.60734 | 31 ft | 114 kts | 25° |
| 2026-04-17 12:01 | 28.94740 | -13.60411 | 42 ft | 66 kts | 27° |
| 2026-04-17 12:01 | 28.95029 | -13.60243 | 49 ft | 38 kts | 27° |
| 2026-04-17 12:01 | 28.95252 | -13.60208 | 49 ft | 31 kts | 1° |
| 2026-04-17 12:01 | 28.95322 | -13.60265 | 50 ft | 11 kts | 260° |
| 2026-04-17 12:02 | 28.95266 | -13.60312 | 50 ft | 8 kts | 204° |
| 2026-04-17 12:02 | 28.95212 | -13.60343 | 50 ft | 10 kts | 208° |
| 2026-04-17 12:02 | 28.95182 | -13.60413 | 50 ft | 11 kts | 263° |
| 2026-04-17 12:02 | 28.95178 | -13.60443 | 50 ft | 0 kts | 261° |
| 2026-04-17 12:03 | 28.95177 | -13.60445 | 50 ft | 0 kts | 260° |